Braemar — C6SY7 — position and weather

sailwx.info

Track history (hours):
 
Tides and Currents Weather Stations Pressure Air Temp Water Temp Dewpoint Dewpoint Depression Visibility Wind Speed Wind Dir Waves Ship Positions

Braemar

Last reported at 2018-Jun-19 07:59 UTC. Time now 2018-Jun-19 08:19 UTC.
Position N 70°59' E 025°58'.

Length 196 m; draft 5.7 m.

Type: Passenger vessel. MMSI: 311541000.

Date/timePositionNaut miles runAvg speedWind from/ knotsBaromVisibWave heightAir tempDewpointWater temp
2018-Jun-19 07:59N 70°59' E 025°58'0 0.0
2018-Jun-19 07:29N 70°59' E 025°58'0 0.0
2018-Jun-19 06:59N 70°59' E 025°58'0 0.0
2018-Jun-19 06:29N 70°59' E 025°58'0 0.0
2018-Jun-19 05:59N 70°59' E 025°58'0 0.0
2018-Jun-19 05:29N 70°59' E 025°58'0 1.0
2018-Jun-19 05:00N 70°59' E 025°57'713.5
2018-Jun-19 04:30N 70°55' E 025°39'510.9
2018-Jun-19 04:00N 70°58' E 025°25'5 9.9
2018-Jun-19 03:30N 70°60' E 025°10'510.3
2018-Jun-19 03:00N 70°60' E 024°55'510.8
2018-Jun-19 02:30N 71°02' E 024°39'510.7
2018-Jun-19 02:00N 70°59' E 024°24'612.2
2018-Jun-19 01:30N 70°55' E 024°12'612.2
2018-Jun-19 01:00N 70°51' E 023°58'612.1
2018-Jun-19 00:30N 70°47' E 023°44'611.6
2018-Jun-19 00:00N 70°43' E 023°32'611.6
2018-Jun-18 23:30N 70°38' E 023°20'612.2
2018-Jun-18 23:00N 70°34' E 023°07'611.8
2018-Jun-18 22:30N 70°30' E 022°53'611.7
2018-Jun-18 22:00N 70°28' E 022°37'611.2
2018-Jun-18 21:30N 70°27' E 022°21'816.4
2018-Jun-18 21:00N 70°25' E 021°57'815.6
2018-Jun-18 20:30N 70°22' E 021°35'816.4
2018-Jun-18 20:00N 70°16' E 021°19'816.1
2018-Jun-18 19:29N 70°10' E 021°03'816.2
2018-Jun-18 19:00N 70°03' E 020°51'917.1
2018-Jun-18 18:30N 70°00' E 020°27'816.7
2018-Jun-18 18:00N 69°57' E 020°05'816.8
2018-Jun-18 17:30N 69°51' E 019°47'816.5
2018-Jun-18 17:00N 69°48' E 019°25'815.6
2018-Jun-18 16:29N 69°44' E 019°04'4 8.3
2018-Jun-18 16:00N 69°41' E 018°59'0 0.0
2018-Jun-18 15:28N 69°41' E 018°59'0 0.0
2018-Jun-18 14:58N 69°41' E 018°59'0 0.0
2018-Jun-18 14:28N 69°41' E 018°59'0 0.0
2018-Jun-18 13:58N 69°41' E 018°59'0 0.0
2018-Jun-18 13:28N 69°41' E 018°59'0 0.0
2018-Jun-18 12:58N 69°41' E 018°59'0 0.0
2018-Jun-18 12:28N 69°41' E 018°59'0 0.0
2018-Jun-18 11:58N 69°41' E 018°59'0 0.0
2018-Jun-18 11:25N 69°41' E 018°59'0 0.0
2018-Jun-18 10:58N 69°41' E 018°59'0 0.0
2018-Jun-18 10:28N 69°41' E 018°59'0 0.0
2018-Jun-18 09:58N 69°41' E 018°59'0 0.0
2018-Jun-18 09:28N 69°41' E 018°59'0 0.0
2018-Jun-18 08:58N 69°41' E 018°59'0 0.0
2018-Jun-18 08:28N 69°41' E 018°59'0 0.0
2018-Jun-18 07:55N 69°41' E 018°59'0 0.0
2018-Jun-18 07:28N 69°41' E 018°59'3 5.6
2018-Jun-18 07:01N 69°43' E 019°02'510.0
2018-Jun-18 06:30N 69°39' E 018°53'612.3
2018-Jun-18 06:00N 69°33' E 018°45'611.3
2018-Jun-18 05:30N 69°32' E 018°30'611.6
2018-Jun-18 05:00N 69°30' E 018°15'510.0
2018-Jun-18 04:30N 69°26' E 018°07'611.4
2018-Jun-18 03:59N 69°20' E 018°02'611.2
2018-Jun-18 03:29N 69°15' E 017°58'5 9.2
2018-Jun-18 02:59N 69°10' E 017°57'715.4
2018-Jun-18 02:30N 69°07' E 017°38'715.1
2018-Jun-18 02:00N 69°03' E 017°20'816.1
2018-Jun-18 01:30N 68°57' E 017°07'816.3
2018-Jun-18 01:00N 68°50' E 016°54'816.2
2018-Jun-18 00:29N 68°43' E 016°42'714.9
2018-Jun-18 00:00N 68°36' E 016°33'510.6
2018-Jun-17 23:30N 68°34' E 016°21'713.6
2018-Jun-17 23:00N 68°29' E 016°07'713.9
2018-Jun-17 22:29N 68°22' E 016°01'816.4
2018-Jun-17 22:00N 68°17' E 015°46'816.0
2018-Jun-17 21:30N 68°12' E 015°28'816.3
2018-Jun-17 21:00N 68°08' E 015°10'816.4
2018-Jun-17 20:29N 68°03' E 014°51'816.1
2018-Jun-17 19:59N 67°58' E 014°34'816.4
2018-Jun-17 19:30N 67°52' E 014°21'816.2
2018-Jun-17 19:00N 67°45' E 014°09'816.6
2018-Jun-17 18:30N 67°36' E 014°11'816.8
2018-Jun-17 18:00N 67°29' E 014°22'714.6
2018-Jun-17 17:30N 67°22' E 014°24'816.7
2018-Jun-17 17:00N 67°15' E 014°11'816.3
2018-Jun-17 16:31N 67°08' E 014°02'816.0
2018-Jun-17 16:00N 67°02' E 013°49'815.0
2018-Jun-17 15:30N 66°58' E 013°32'713.2
2018-Jun-17 15:00N 66°53' E 013°22'612.9
2018-Jun-17 14:30N 66°47' E 013°15'815.8
2018-Jun-17 14:01N 66°40' E 013°07'714.6
2018-Jun-17 13:30N 66°33' E 013°02'3 6.9
2018-Jun-17 13:00N 66°29' E 012°60'4 7.3
2018-Jun-17 12:30N 66°26' E 012°59'4 7.4
2018-Jun-17 12:00N 66°22' E 012°58'4 8.2
2018-Jun-17 11:30N 66°18' E 012°56'510.3
2018-Jun-17 11:00N 66°13' E 012°53'713.8
2018-Jun-17 10:30N 66°07' E 012°45'815.4
2018-Jun-17 10:00N 66°01' E 012°33'713.6
2018-Jun-17 09:30N 65°55' E 012°23'611.0
2018-Jun-17 09:00N 65°50' E 012°22'612.1
2018-Jun-17 08:30N 65°44' E 012°17'612.8
2018-Jun-17 08:00N 65°38' E 012°13'612.7
2018-Jun-17 07:30N 65°33' E 012°04'713.3
2018-Jun-17 07:00N 65°27' E 011°56'510.4
2018-Jun-17 06:30N 65°22' E 012°01'2 3.5
2018-Jun-17 06:00N 65°20' E 012°02'510.2
2018-Jun-17 05:31N 65°16' E 011°57'5 9.5
2018-Jun-17 05:01N 65°12' E 011°52'5 9.3
2018-Jun-17 04:30N 65°07' E 011°49'5 9.8
2018-Jun-17 04:01N 65°03' E 011°44'611.6
2018-Jun-17 03:31N 64°58' E 011°35'713.4
2018-Jun-17 03:01N 64°55' E 011°22'511.0
2018-Jun-17 02:30N 64°51' E 011°13'510.7
2018-Jun-17 02:00N 64°47' E 011°04'612.1
2018-Jun-17 01:30N 64°43' E 010°53'612.0
2018-Jun-17 00:59N 64°38' E 010°44'611.9
2018-Jun-17 00:30N 64°33' E 010°35'612.6
2018-Jun-17 00:00N 64°28' E 010°27'612.8
2018-Jun-16 23:30N 64°22' E 010°28'612.4
2018-Jun-16 23:00N 64°17' E 010°20'610.7
2018-Jun-16 22:29N 64°13' E 010°12'612.6
2018-Jun-16 22:00N 64°07' E 010°04'612.7
2018-Jun-16 21:30N 64°04' E 009°52'612.7
2018-Jun-16 21:00N 63°59' E 009°42'713.2
2018-Jun-16 20:30N 63°54' E 009°33'713.4
2018-Jun-16 20:00N 63°50' E 009°21'713.0
2018-Jun-16 19:30N 63°44' E 009°16'612.7
2018-Jun-16 19:00N 63°37' E 009°18'713.3
2018-Jun-16 18:30N 63°37' E 009°33'612.5
2018-Jun-16 18:00N 63°39' E 009°46'713.1
2018-Jun-16 17:30N 63°33' E 009°52'612.5
2018-Jun-16 17:00N 63°28' E 010°00'714.0
2018-Jun-16 16:30N 63°28' E 010°16'4 8.2
2018-Jun-16 16:01N 63°27' E 010°24'0 0.0
2018-Jun-16 15:29N 63°26' E 010°24'0 0.0
2018-Jun-16 14:59N 63°26' E 010°24'0 0.0
2018-Jun-16 14:29N 63°26' E 010°24'0 0.0
2018-Jun-16 13:59N 63°26' E 010°24'0 0.0
2018-Jun-16 13:29N 63°26' E 010°24'0 0.0
2018-Jun-16 12:59N 63°26' E 010°24'0 0.0
2018-Jun-16 12:29N 63°26' E 010°24'0 0.0
2018-Jun-16 11:59N 63°26' E 010°24'0 0.0
2018-Jun-16 11:29N 63°26' E 010°24'0 0.0
2018-Jun-16 10:59N 63°26' E 010°24'0 0.0
2018-Jun-16 10:29N 63°26' E 010°24'0 0.0
2018-Jun-16 09:59N 63°26' E 010°24'0 0.0
2018-Jun-16 09:29N 63°26' E 010°24'0 0.0
2018-Jun-16 08:59N 63°26' E 010°24'0 0.0
2018-Jun-16 08:29N 63°26' E 010°24'0 0.0
2018-Jun-16 07:59N 63°26' E 010°24'0 0.0
2018-Jun-16 07:29N 63°26' E 010°24'0 0.0
2018-Jun-16 06:59N 63°26' E 010°24'0 0.0
2018-Jun-16 06:29N 63°26' E 010°24'0 0.0
2018-Jun-16 05:59N 63°26' E 010°24'0 0.0
2018-Jun-16 05:27N 63°26' E 010°24'1 2.2
2018-Jun-16 05:00N 63°27' E 010°22'5 9.9
2018-Jun-16 04:30N 63°28' E 010°11'510.0
2018-Jun-16 04:00N 63°29' E 010°00'5 8.9
2018-Jun-16 03:29N 63°32' E 009°53'510.0
2018-Jun-16 03:00N 63°36' E 009°48'4 9.1
2018-Jun-16 02:31N 63°40' E 009°42'510.5
2018-Jun-16 02:00N 63°37' E 009°31'510.1
2018-Jun-16 01:30N 63°34' E 009°22'510.5
2018-Jun-16 01:00N 63°31' E 009°12'611.1
2018-Jun-16 00:30N 63°29' E 009°01'510.9
2018-Jun-16 00:00N 63°27' E 008°49'610.9
2018-Jun-15 23:29N 63°25' E 008°37'511.2
2018-Jun-15 23:00N 63°23' E 008°26'611.3
2018-Jun-15 22:30N 63°19' E 008°17'611.5
2018-Jun-15 22:00N 63°16' E 008°06'510.9
2018-Jun-15 21:31N 63°13' E 007°56'510.3
2018-Jun-15 21:01N 63°14' E 007°44'510.8
2018-Jun-15 20:30N 63°15' E 007°32'511.0
2018-Jun-15 20:00N 63°15' E 007°20'611.5
2018-Jun-15 19:30N 63°13' E 007°08'611.1
2018-Jun-15 19:00N 63°12' E 006°56'612.3
2018-Jun-15 18:30N 63°10' E 006°43'612.3
2018-Jun-15 18:00N 63°08' E 006°30'3212.3
2018-Jun-15 15:26N 62°49' E 005°35'512.6
2018-Jun-15 15:00N 62°45' E 005°27'612.2
2018-Jun-15 14:30N 62°41' E 005°17'  
2018-Jun-13 09:05N 52°39' E 002°41'114.5
2018-Jun-13 09:00N 52°38' E 002°41'2714.0
2018-Jun-13 07:05N 52°11' E 002°41'113.2
2018-Jun-13 06:58N 52°10' E 002°41'2913.1
2018-Jun-13 04:46N 51°42' E 002°29'414.2
2018-Jun-13 04:30N 51°39' E 002°25'714.4
2018-Jun-13 03:59N 51°33' E 002°17'714.8
2018-Jun-13 03:30N 51°27' E 002°11'714.2
2018-Jun-13 03:00N 51°22' E 002°03'815.1
2018-Jun-13 02:30N 51°17' E 001°54'815.5
2018-Jun-13 02:01N 51°11' E 001°46'816.0
2018-Jun-13 01:30N 51°05' E 001°39'816.7
2018-Jun-13 01:00N 50°59' E 001°29'916.5
2018-Jun-13 00:29N 50°51' E 001°24'7114.9
2018-Jun-12 19:44N 50°27' W 000°21'417.4
2018-Jun-12 19:30N 50°29' W 000°27'917.4
2018-Jun-12 19:00N 50°33' W 000°39'917.8
2018-Jun-12 18:30N 50°38' W 000°51'714.1
2018-Jun-12 18:00N 50°43' W 000°58'816.0
2018-Jun-12 17:30N 50°45' W 001°10'611.1
2018-Jun-12 17:01N 50°48' W 001°17'611.3
2018-Jun-12 16:30N 50°53' W 001°23'2 0.2
2018-Jun-12 04:45N 50°51' W 001°21'310.4
2018-Jun-12 04:30N 50°49' W 001°18'5 9.1
2018-Jun-12 04:00N 50°46' W 001°13'714.9
2018-Jun-12 03:30N 50°44' W 001°02'611.3
2018-Jun-12 03:00N 50°39' W 000°57'5 9.2
2018-Jun-12 02:30N 50°37' W 000°50'611.4
2018-Jun-12 02:00N 50°36' W 000°41'510.8
2018-Jun-12 01:30N 50°34' W 000°33'510.7
2018-Jun-12 01:00N 50°33' W 000°25'712.1
2018-Jun-12 00:27N 50°32' W 000°15'1511.6
2018-Jun-11 23:12N 50°34' E 000°08'511.3
2018-Jun-11 22:44N 50°35' E 000°16'211.1
2018-Jun-11 22:30N 50°36' E 000°20'611.0
2018-Jun-11 22:00N 50°37' E 000°28'611.1
2018-Jun-11 21:29N 50°40' E 000°37'510.8
2018-Jun-11 21:00N 50°43' E 000°44'510.8
2018-Jun-11 20:30N 50°46' E 000°51'510.6
2018-Jun-11 20:00N 50°49' E 000°57'810.7
2018-Jun-11 19:13N 50°54' E 001°08'310.4
2018-Jun-11 18:56N 50°56' E 001°12'410.5
2018-Jun-11 18:30N 50°59' E 001°17'510.5
2018-Jun-11 18:00N 51°02' E 001°23'510.2
2018-Jun-11 17:30N 51°05' E 001°29'611.0
2018-Jun-11 17:00N 51°09' E 001°36'713.9
2018-Jun-11 16:30N 51°13' E 001°45'714.6
2018-Jun-11 16:00N 51°20' E 001°51'713.5
2018-Jun-11 15:30N 51°26' E 001°56'612.8
2018-Jun-11 15:00N 51°30' E 002°02'612.2
2018-Jun-11 14:29N 51°35' E 002°09'611.9
2018-Jun-11 14:01N 51°39' E 002°15'611.5
2018-Jun-11 13:30N 51°44' E 002°21'611.1
2018-Jun-11 13:00N 51°49' E 002°26'610.9
2018-Jun-11 12:28N 51°53' E 002°32'510.8
2018-Jun-11 12:00N 51°57' E 002°38'510.9
2018-Jun-11 11:30N 52°01' E 002°44'611.1
2018-Jun-11 10:59N 52°05' E 002°50'511.5
2018-Jun-11 10:30N 52°09' E 002°56'611.9
2018-Jun-11 10:00N 52°14' E 003°02'712.4
2018-Jun-11 09:26N 52°20' E 003°09'612.9
2018-Jun-11 09:00N 52°24' E 003°14'713.2
2018-Jun-11 08:29N 52°30' E 003°20'714.7
2018-Jun-11 08:00N 52°36' E 003°27'917.7
2018-Jun-11 07:28N 52°43' E 003°37'817.7
2018-Jun-11 07:00N 52°49' E 003°46'917.6
2018-Jun-11 06:30N 52°56' E 003°55'4915.5
2018-Jun-11 03:21N 53°32' E 004°50'515.2
2018-Jun-11 03:00N 53°34' E 004°58'11016.6
2018-Jun-10 20:21N 54°01' E 007°59'513.8
2018-Jun-10 19:59N 54°01' E 008°08'510.9
2018-Jun-10 19:30N 54°00' E 008°16'611.9
2018-Jun-10 19:00N 53°59' E 008°26'612.5
2018-Jun-10 18:30N 53°57' E 008°37'612.6
2018-Jun-10 18:00N 53°53' E 008°43'611.8
2018-Jun-10 17:30N 53°50' E 008°53'714.1
2018-Jun-10 17:00N 53°52' E 009°04'3 5.8
2018-Jun-10 16:30N 53°54' E 009°09'0 0.0
2018-Jun-10 16:00N 53°54' E 009°09'3 5.0
2018-Jun-10 15:30N 53°55' E 009°12'4 7.4
2018-Jun-10 15:00N 53°58' E 009°16'4 7.3
2018-Jun-10 14:30N 54°02' E 009°18'7 7.2
2018-Jun-10 13:31N 54°09' E 009°21'3 5.4
2018-Jun-10 13:01N 54°10' E 009°25'4 7.2
2018-Jun-10 12:31N 54°11' E 009°30'2 3.8
2018-Jun-10 12:01N 54°12' E 009°33'4 7.0
2018-Jun-10 11:30N 54°15' E 009°37'3 6.2
2018-Jun-10 11:01N 54°17' E 009°40'3 5.3
2018-Jun-10 10:30N 54°19' E 009°43'3 6.6
2018-Jun-10 10:00N 54°22' E 009°47'3 5.7
2018-Jun-10 09:25N 54°21' E 009°53'0 0.1
2018-Jun-10 08:32N 54°21' E 009°53'0 0.7
2018-Jun-10 08:29N 54°21' E 009°53'8 5.9
2018-Jun-10 07:07N 54°22' E 010°07'1 2.0
2018-Jun-10 06:40N 54°22' E 010°08'0 1.6
2018-Jun-10 06:28N 54°22' E 010°09'2 4.8
2018-Jun-10 05:58N 54°24' E 010°12'613.8
2018-Jun-10 05:30N 54°29' E 010°17'510.6
2018-Jun-10 05:00N 54°32' E 010°25'612.2
2018-Jun-10 04:30N 54°34' E 010°34'611.9
2018-Jun-10 04:00N 54°35' E 010°45'611.3
2018-Jun-10 03:31N 54°35' E 010°54'611.5
2018-Jun-10 03:00N 54°36' E 011°04'611.4
2018-Jun-10 02:30N 54°35' E 011°14'611.4
2018-Jun-10 02:00N 54°33' E 011°23'612.3
2018-Jun-10 01:30N 54°30' E 011°32'612.5
2018-Jun-10 01:00N 54°28' E 011°42'612.2
2018-Jun-10 00:30N 54°26' E 011°53'5 9.4
2018-Jun-10 00:00N 54°21' E 011°51'611.9
2018-Jun-09 23:30N 54°18' E 011°42'611.7
2018-Jun-09 23:00N 54°15' E 011°33'611.6
2018-Jun-09 22:30N 54°12' E 011°25'612.0
2018-Jun-09 22:00N 54°09' E 011°16'612.1
2018-Jun-09 21:30N 54°05' E 011°08'612.0
2018-Jun-09 21:00N 54°02' E 011°00'5 9.4
2018-Jun-09 20:30N 53°58' E 010°54'2 3.2
2018-Jun-09 20:00N 53°57' E 010°52'0 0.0
2018-Jun-09 19:15N 53°57' E 010°52'3 0.3
2018-Jun-09 08:34N 53°60' E 010°56'0 7.8
2018-Jun-09 08:31N 53°60' E 010°57'5 9.2
2018-Jun-09 08:00N 54°03' E 011°03'  
Track history (hours):
 
Tides and Currents Weather Stations Pressure Air Temp Water Temp Dewpoint Dewpoint Depression Visibility Wind Speed Wind Dir Waves Ship Positions

Braemar

Last reported at 2018-Jun-19 07:59 UTC. Time now 2018-Jun-19 08:19 UTC.
Position N 70°59' E 025°58'.

Length 196 m; draft 5.7 m.

Type: Passenger vessel. MMSI: 311541000.

Date/timePositionNaut miles runAvg speedWind from/ knotsBaromVisibWave heightAir tempDewpointWater temp
2018-Jun-19 07:59N 70°59' E 025°58'0 0.0
2018-Jun-19 07:29N 70°59' E 025°58'0 0.0
2018-Jun-19 06:59N 70°59' E 025°58'0 0.0
2018-Jun-19 06:29N 70°59' E 025°58'0 0.0
2018-Jun-19 05:59N 70°59' E 025°58'0 0.0
2018-Jun-19 05:29N 70°59' E 025°58'0 1.0
2018-Jun-19 05:00N 70°59' E 025°57'713.5
2018-Jun-19 04:30N 70°55' E 025°39'510.9
2018-Jun-19 04:00N 70°58' E 025°25'5 9.9
2018-Jun-19 03:30N 70°60' E 025°10'510.3
2018-Jun-19 03:00N 70°60' E 024°55'510.8
2018-Jun-19 02:30N 71°02' E 024°39'510.7
2018-Jun-19 02:00N 70°59' E 024°24'612.2
2018-Jun-19 01:30N 70°55' E 024°12'612.2
2018-Jun-19 01:00N 70°51' E 023°58'612.1
2018-Jun-19 00:30N 70°47' E 023°44'611.6
2018-Jun-19 00:00N 70°43' E 023°32'611.6
2018-Jun-18 23:30N 70°38' E 023°20'612.2
2018-Jun-18 23:00N 70°34' E 023°07'611.8
2018-Jun-18 22:30N 70°30' E 022°53'611.7
2018-Jun-18 22:00N 70°28' E 022°37'611.2
2018-Jun-18 21:30N 70°27' E 022°21'816.4
2018-Jun-18 21:00N 70°25' E 021°57'815.6
2018-Jun-18 20:30N 70°22' E 021°35'816.4
2018-Jun-18 20:00N 70°16' E 021°19'816.1
2018-Jun-18 19:29N 70°10' E 021°03'816.2
2018-Jun-18 19:00N 70°03' E 020°51'917.1
2018-Jun-18 18:30N 70°00' E 020°27'816.7
2018-Jun-18 18:00N 69°57' E 020°05'816.8
2018-Jun-18 17:30N 69°51' E 019°47'816.5
2018-Jun-18 17:00N 69°48' E 019°25'815.6
2018-Jun-18 16:29N 69°44' E 019°04'4 8.3
2018-Jun-18 16:00N 69°41' E 018°59'0 0.0
2018-Jun-18 15:28N 69°41' E 018°59'0 0.0
2018-Jun-18 14:58N 69°41' E 018°59'0 0.0
2018-Jun-18 14:28N 69°41' E 018°59'0 0.0
2018-Jun-18 13:58N 69°41' E 018°59'0 0.0
2018-Jun-18 13:28N 69°41' E 018°59'0 0.0
2018-Jun-18 12:58N 69°41' E 018°59'0 0.0
2018-Jun-18 12:28N 69°41' E 018°59'0 0.0
2018-Jun-18 11:58N 69°41' E 018°59'0 0.0
2018-Jun-18 11:25N 69°41' E 018°59'0 0.0
2018-Jun-18 10:58N 69°41' E 018°59'0 0.0
2018-Jun-18 10:28N 69°41' E 018°59'0 0.0
2018-Jun-18 09:58N 69°41' E 018°59'0 0.0
2018-Jun-18 09:28N 69°41' E 018°59'0 0.0
2018-Jun-18 08:58N 69°41' E 018°59'0 0.0
2018-Jun-18 08:28N 69°41' E 018°59'0 0.0
2018-Jun-18 07:55N 69°41' E 018°59'0 0.0
2018-Jun-18 07:28N 69°41' E 018°59'3 5.6
2018-Jun-18 07:01N 69°43' E 019°02'510.0
2018-Jun-18 06:30N 69°39' E 018°53'612.3
2018-Jun-18 06:00N 69°33' E 018°45'611.3
2018-Jun-18 05:30N 69°32' E 018°30'611.6
2018-Jun-18 05:00N 69°30' E 018°15'510.0
2018-Jun-18 04:30N 69°26' E 018°07'611.4
2018-Jun-18 03:59N 69°20' E 018°02'611.2
2018-Jun-18 03:29N 69°15' E 017°58'5 9.2
2018-Jun-18 02:59N 69°10' E 017°57'715.4
2018-Jun-18 02:30N 69°07' E 017°38'715.1
2018-Jun-18 02:00N 69°03' E 017°20'816.1
2018-Jun-18 01:30N 68°57' E 017°07'816.3
2018-Jun-18 01:00N 68°50' E 016°54'816.2
2018-Jun-18 00:29N 68°43' E 016°42'714.9
2018-Jun-18 00:00N 68°36' E 016°33'510.6
2018-Jun-17 23:30N 68°34' E 016°21'713.6
2018-Jun-17 23:00N 68°29' E 016°07'713.9
2018-Jun-17 22:29N 68°22' E 016°01'816.4
2018-Jun-17 22:00N 68°17' E 015°46'816.0
2018-Jun-17 21:30N 68°12' E 015°28'816.3
2018-Jun-17 21:00N 68°08' E 015°10'816.4
2018-Jun-17 20:29N 68°03' E 014°51'816.1
2018-Jun-17 19:59N 67°58' E 014°34'816.4
2018-Jun-17 19:30N 67°52' E 014°21'816.2
2018-Jun-17 19:00N 67°45' E 014°09'816.6
2018-Jun-17 18:30N 67°36' E 014°11'816.8
2018-Jun-17 18:00N 67°29' E 014°22'714.6
2018-Jun-17 17:30N 67°22' E 014°24'816.7
2018-Jun-17 17:00N 67°15' E 014°11'816.3
2018-Jun-17 16:31N 67°08' E 014°02'816.0
2018-Jun-17 16:00N 67°02' E 013°49'815.0
2018-Jun-17 15:30N 66°58' E 013°32'713.2
2018-Jun-17 15:00N 66°53' E 013°22'612.9
2018-Jun-17 14:30N 66°47' E 013°15'815.8
2018-Jun-17 14:01N 66°40' E 013°07'714.6
2018-Jun-17 13:30N 66°33' E 013°02'3 6.9
2018-Jun-17 13:00N 66°29' E 012°60'4 7.3
2018-Jun-17 12:30N 66°26' E 012°59'4 7.4
2018-Jun-17 12:00N 66°22' E 012°58'4 8.2
2018-Jun-17 11:30N 66°18' E 012°56'510.3
2018-Jun-17 11:00N 66°13' E 012°53'713.8
2018-Jun-17 10:30N 66°07' E 012°45'815.4
2018-Jun-17 10:00N 66°01' E 012°33'713.6
2018-Jun-17 09:30N 65°55' E 012°23'611.0
2018-Jun-17 09:00N 65°50' E 012°22'612.1
2018-Jun-17 08:30N 65°44' E 012°17'612.8
2018-Jun-17 08:00N 65°38' E 012°13'612.7
2018-Jun-17 07:30N 65°33' E 012°04'713.3
2018-Jun-17 07:00N 65°27' E 011°56'510.4
2018-Jun-17 06:30N 65°22' E 012°01'2 3.5
2018-Jun-17 06:00N 65°20' E 012°02'510.2
2018-Jun-17 05:31N 65°16' E 011°57'5 9.5
2018-Jun-17 05:01N 65°12' E 011°52'5 9.3
2018-Jun-17 04:30N 65°07' E 011°49'5 9.8
2018-Jun-17 04:01N 65°03' E 011°44'611.6
2018-Jun-17 03:31N 64°58' E 011°35'713.4
2018-Jun-17 03:01N 64°55' E 011°22'511.0
2018-Jun-17 02:30N 64°51' E 011°13'510.7
2018-Jun-17 02:00N 64°47' E 011°04'612.1
2018-Jun-17 01:30N 64°43' E 010°53'612.0
2018-Jun-17 00:59N 64°38' E 010°44'611.9
2018-Jun-17 00:30N 64°33' E 010°35'612.6
2018-Jun-17 00:00N 64°28' E 010°27'612.8
2018-Jun-16 23:30N 64°22' E 010°28'612.4
2018-Jun-16 23:00N 64°17' E 010°20'610.7
2018-Jun-16 22:29N 64°13' E 010°12'612.6
2018-Jun-16 22:00N 64°07' E 010°04'612.7
2018-Jun-16 21:30N 64°04' E 009°52'612.7
2018-Jun-16 21:00N 63°59' E 009°42'713.2
2018-Jun-16 20:30N 63°54' E 009°33'713.4
2018-Jun-16 20:00N 63°50' E 009°21'713.0
2018-Jun-16 19:30N 63°44' E 009°16'612.7
2018-Jun-16 19:00N 63°37' E 009°18'713.3
2018-Jun-16 18:30N 63°37' E 009°33'612.5
2018-Jun-16 18:00N 63°39' E 009°46'713.1
2018-Jun-16 17:30N 63°33' E 009°52'612.5
2018-Jun-16 17:00N 63°28' E 010°00'714.0
2018-Jun-16 16:30N 63°28' E 010°16'4 8.2
2018-Jun-16 16:01N 63°27' E 010°24'0 0.0
2018-Jun-16 15:29N 63°26' E 010°24'0 0.0
2018-Jun-16 14:59N 63°26' E 010°24'0 0.0
2018-Jun-16 14:29N 63°26' E 010°24'0 0.0
2018-Jun-16 13:59N 63°26' E 010°24'0 0.0
2018-Jun-16 13:29N 63°26' E 010°24'0 0.0
2018-Jun-16 12:59N 63°26' E 010°24'0 0.0
2018-Jun-16 12:29N 63°26' E 010°24'0 0.0
2018-Jun-16 11:59N 63°26' E 010°24'0 0.0
2018-Jun-16 11:29N 63°26' E 010°24'0 0.0
2018-Jun-16 10:59N 63°26' E 010°24'0 0.0
2018-Jun-16 10:29N 63°26' E 010°24'0 0.0
2018-Jun-16 09:59N 63°26' E 010°24'0 0.0
2018-Jun-16 09:29N 63°26' E 010°24'0 0.0
2018-Jun-16 08:59N 63°26' E 010°24'0 0.0
2018-Jun-16 08:29N 63°26' E 010°24'0 0.0
2018-Jun-16 07:59N 63°26' E 010°24'0 0.0
2018-Jun-16 07:29N 63°26' E 010°24'0 0.0
2018-Jun-16 06:59N 63°26' E 010°24'0 0.0
2018-Jun-16 06:29N 63°26' E 010°24'0 0.0
2018-Jun-16 05:59N 63°26' E 010°24'0 0.0
2018-Jun-16 05:27N 63°26' E 010°24'1 2.2
2018-Jun-16 05:00N 63°27' E 010°22'5 9.9
2018-Jun-16 04:30N 63°28' E 010°11'510.0
2018-Jun-16 04:00N 63°29' E 010°00'5 8.9
2018-Jun-16 03:29N 63°32' E 009°53'510.0
2018-Jun-16 03:00N 63°36' E 009°48'4 9.1
2018-Jun-16 02:31N 63°40' E 009°42'510.5
2018-Jun-16 02:00N 63°37' E 009°31'510.1
2018-Jun-16 01:30N 63°34' E 009°22'510.5
2018-Jun-16 01:00N 63°31' E 009°12'611.1
2018-Jun-16 00:30N 63°29' E 009°01'510.9
2018-Jun-16 00:00N 63°27' E 008°49'610.9
2018-Jun-15 23:29N 63°25' E 008°37'511.2
2018-Jun-15 23:00N 63°23' E 008°26'611.3
2018-Jun-15 22:30N 63°19' E 008°17'611.5
2018-Jun-15 22:00N 63°16' E 008°06'510.9
2018-Jun-15 21:31N 63°13' E 007°56'510.3
2018-Jun-15 21:01N 63°14' E 007°44'510.8
2018-Jun-15 20:30N 63°15' E 007°32'511.0
2018-Jun-15 20:00N 63°15' E 007°20'611.5
2018-Jun-15 19:30N 63°13' E 007°08'611.1
2018-Jun-15 19:00N 63°12' E 006°56'612.3
2018-Jun-15 18:30N 63°10' E 006°43'612.3
2018-Jun-15 18:00N 63°08' E 006°30'3212.3
2018-Jun-15 15:26N 62°49' E 005°35'512.6
2018-Jun-15 15:00N 62°45' E 005°27'612.2
2018-Jun-15 14:30N 62°41' E 005°17'  
2018-Jun-13 09:05N 52°39' E 002°41'114.5
2018-Jun-13 09:00N 52°38' E 002°41'2714.0
2018-Jun-13 07:05N 52°11' E 002°41'113.2
2018-Jun-13 06:58N 52°10' E 002°41'2913.1
2018-Jun-13 04:46N 51°42' E 002°29'414.2
2018-Jun-13 04:30N 51°39' E 002°25'714.4
2018-Jun-13 03:59N 51°33' E 002°17'714.8
2018-Jun-13 03:30N 51°27' E 002°11'714.2
2018-Jun-13 03:00N 51°22' E 002°03'815.1
2018-Jun-13 02:30N 51°17' E 001°54'815.5
2018-Jun-13 02:01N 51°11' E 001°46'816.0
2018-Jun-13 01:30N 51°05' E 001°39'816.7
2018-Jun-13 01:00N 50°59' E 001°29'916.5
2018-Jun-13 00:29N 50°51' E 001°24'7114.9
2018-Jun-12 19:44N 50°27' W 000°21'417.4
2018-Jun-12 19:30N 50°29' W 000°27'917.4
2018-Jun-12 19:00N 50°33' W 000°39'917.8
2018-Jun-12 18:30N 50°38' W 000°51'714.1
2018-Jun-12 18:00N 50°43' W 000°58'816.0
2018-Jun-12 17:30N 50°45' W 001°10'611.1
2018-Jun-12 17:01N 50°48' W 001°17'611.3
2018-Jun-12 16:30N 50°53' W 001°23'2 0.2
2018-Jun-12 04:45N 50°51' W 001°21'310.4
2018-Jun-12 04:30N 50°49' W 001°18'5 9.1
2018-Jun-12 04:00N 50°46' W 001°13'714.9
2018-Jun-12 03:30N 50°44' W 001°02'611.3
2018-Jun-12 03:00N 50°39' W 000°57'5 9.2
2018-Jun-12 02:30N 50°37' W 000°50'611.4
2018-Jun-12 02:00N 50°36' W 000°41'510.8
2018-Jun-12 01:30N 50°34' W 000°33'510.7
2018-Jun-12 01:00N 50°33' W 000°25'712.1
2018-Jun-12 00:27N 50°32' W 000°15'1511.6
2018-Jun-11 23:12N 50°34' E 000°08'511.3
2018-Jun-11 22:44N 50°35' E 000°16'211.1
2018-Jun-11 22:30N 50°36' E 000°20'611.0
2018-Jun-11 22:00N 50°37' E 000°28'611.1
2018-Jun-11 21:29N 50°40' E 000°37'510.8
2018-Jun-11 21:00N 50°43' E 000°44'510.8
2018-Jun-11 20:30N 50°46' E 000°51'510.6
2018-Jun-11 20:00N 50°49' E 000°57'810.7
2018-Jun-11 19:13N 50°54' E 001°08'310.4
2018-Jun-11 18:56N 50°56' E 001°12'410.5
2018-Jun-11 18:30N 50°59' E 001°17'510.5
2018-Jun-11 18:00N 51°02' E 001°23'510.2
2018-Jun-11 17:30N 51°05' E 001°29'611.0
2018-Jun-11 17:00N 51°09' E 001°36'713.9
2018-Jun-11 16:30N 51°13' E 001°45'714.6
2018-Jun-11 16:00N 51°20' E 001°51'713.5
2018-Jun-11 15:30N 51°26' E 001°56'612.8
2018-Jun-11 15:00N 51°30' E 002°02'612.2
2018-Jun-11 14:29N 51°35' E 002°09'611.9
2018-Jun-11 14:01N 51°39' E 002°15'611.5
2018-Jun-11 13:30N 51°44' E 002°21'611.1
2018-Jun-11 13:00N 51°49' E 002°26'610.9
2018-Jun-11 12:28N 51°53' E 002°32'510.8
2018-Jun-11 12:00N 51°57' E 002°38'510.9
2018-Jun-11 11:30N 52°01' E 002°44'611.1
2018-Jun-11 10:59N 52°05' E 002°50'511.5
2018-Jun-11 10:30N 52°09' E 002°56'611.9
2018-Jun-11 10:00N 52°14' E 003°02'712.4
2018-Jun-11 09:26N 52°20' E 003°09'612.9
2018-Jun-11 09:00N 52°24' E 003°14'713.2
2018-Jun-11 08:29N 52°30' E 003°20'714.7
2018-Jun-11 08:00N 52°36' E 003°27'917.7
2018-Jun-11 07:28N 52°43' E 003°37'817.7
2018-Jun-11 07:00N 52°49' E 003°46'917.6
2018-Jun-11 06:30N 52°56' E 003°55'4915.5
2018-Jun-11 03:21N 53°32' E 004°50'515.2
2018-Jun-11 03:00N 53°34' E 004°58'11016.6
2018-Jun-10 20:21N 54°01' E 007°59'513.8
2018-Jun-10 19:59N 54°01' E 008°08'510.9
2018-Jun-10 19:30N 54°00' E 008°16'611.9
2018-Jun-10 19:00N 53°59' E 008°26'612.5
2018-Jun-10 18:30N 53°57' E 008°37'612.6
2018-Jun-10 18:00N 53°53' E 008°43'611.8
2018-Jun-10 17:30N 53°50' E 008°53'714.1
2018-Jun-10 17:00N 53°52' E 009°04'3 5.8
2018-Jun-10 16:30N 53°54' E 009°09'0 0.0
2018-Jun-10 16:00N 53°54' E 009°09'3 5.0
2018-Jun-10 15:30N 53°55' E 009°12'4 7.4
2018-Jun-10 15:00N 53°58' E 009°16'4 7.3
2018-Jun-10 14:30N 54°02' E 009°18'7 7.2
2018-Jun-10 13:31N 54°09' E 009°21'3 5.4
2018-Jun-10 13:01N 54°10' E 009°25'4 7.2
2018-Jun-10 12:31N 54°11' E 009°30'2 3.8
2018-Jun-10 12:01N 54°12' E 009°33'4 7.0
2018-Jun-10 11:30N 54°15' E 009°37'3 6.2
2018-Jun-10 11:01N 54°17' E 009°40'3 5.3
2018-Jun-10 10:30N 54°19' E 009°43'3 6.6
2018-Jun-10 10:00N 54°22' E 009°47'3 5.7
2018-Jun-10 09:25N 54°21' E 009°53'0 0.1
2018-Jun-10 08:32N 54°21' E 009°53'0 0.7
2018-Jun-10 08:29N 54°21' E 009°53'8 5.9
2018-Jun-10 07:07N 54°22' E 010°07'1 2.0
2018-Jun-10 06:40N 54°22' E 010°08'0 1.6
2018-Jun-10 06:28N 54°22' E 010°09'2 4.8
2018-Jun-10 05:58N 54°24' E 010°12'613.8
2018-Jun-10 05:30N 54°29' E 010°17'510.6
2018-Jun-10 05:00N 54°32' E 010°25'612.2
2018-Jun-10 04:30N 54°34' E 010°34'611.9
2018-Jun-10 04:00N 54°35' E 010°45'611.3
2018-Jun-10 03:31N 54°35' E 010°54'611.5
2018-Jun-10 03:00N 54°36' E 011°04'611.4
2018-Jun-10 02:30N 54°35' E 011°14'611.4
2018-Jun-10 02:00N 54°33' E 011°23'612.3
2018-Jun-10 01:30N 54°30' E 011°32'612.5
2018-Jun-10 01:00N 54°28' E 011°42'612.2
2018-Jun-10 00:30N 54°26' E 011°53'5 9.4
2018-Jun-10 00:00N 54°21' E 011°51'611.9
2018-Jun-09 23:30N 54°18' E 011°42'611.7
2018-Jun-09 23:00N 54°15' E 011°33'611.6
2018-Jun-09 22:30N 54°12' E 011°25'612.0
2018-Jun-09 22:00N 54°09' E 011°16'612.1
2018-Jun-09 21:30N 54°05' E 011°08'612.0
2018-Jun-09 21:00N 54°02' E 011°00'5 9.4
2018-Jun-09 20:30N 53°58' E 010°54'2 3.2
2018-Jun-09 20:00N 53°57' E 010°52'0 0.0
2018-Jun-09 19:15N 53°57' E 010°52'3 0.3
2018-Jun-09 08:34N 53°60' E 010°56'0 7.8
2018-Jun-09 08:31N 53°60' E 010°57'5 9.2
2018-Jun-09 08:00N 54°03' E 011°03'  

Dump ship's entire track history